SkyGliders logo
contact    inloggen   
gradient

De temperatuurgroep

Status: verplicht


Na een paar wat lastiger onderdelen zijn we nu even in rustiger vaarwater beland: de komende paar onderdelen zijn tamelijk simpel.

De temperatuurgroep bestaat uit één woord van twee temperaturen, gescheiden door een slash (schuine streep).

Temperatuurnotatie

Zoals bekend zijn er een aantal landen (Engeland, Canada, de V.S., Australië enz.) die koppig vast blijven houden aan het Imperiale systeem met eenheden als mijlen, voeten en dergelijke. Maar gelukkig voor ons worden in METARs temperaturen zowaar altijd uitgedrukt in graden celcius, zelfs in landen die normaalgesproken in graden fahrenheit denken.

Temperaturen worden altijd afgerond naar de dichtstbijzijnde hele graad celcius en er worden altijd twee cijfers gebruikt, dus het eerste cijfer kan een voorloopnul zijn. Omdat METARs geen streepjes kunnen bevatten wordt het minteken vervangen door een M.

Notatievoorbeelden
  • 12,2 °C wordt genoteerd als 12.
    (12 is dichterbij 12,2 dan 13)
  • 12,6 °C wordt genoteerd als 13.
    (13 is dichterbij 12,6 dan 12)
  • 7,4 °C wordt genoteerd als 07.
    (altijd twee cijfers gebruiken)
  • -9,4 °C wordt genoteerd als M09.
    (het minteken wordt vervangen door een M)
  • -0,5 °C wordt genoteerd als M00.
  • 89.3 °F wordt genoteerd als 32.
    (METARs doen niet aan graden fahrenheit)
Twee temperaturen

De temperatuurgroep bevat zoals gezegd twee temperaturen, gescheiden door een slash. De eerste temperatuur is de luchttemperatuur op stationsniveau ("de normale" temperatuur zeg maar), de tweede is het dauwpunt.

Voorbeelden

METAR SAWE 231000Z 20006KT 9999 FEW100 M11/M13 Q1009=

  • De temperatuurgroep wordt gevormd door het woord M11/M13.
    • M11/M13: De temperatuur is -11 °C (11 graden onder nul).
    • M11/M13: Het dauwpunt bedraagt -13 °C.
  • De plaatsaanwijzer SAWE is van Hermes Quijada International Airport, in de Argentijnse provincie Vuurland. Dat ligt niet al te ver bij Antarctica vandaan, vandaar de lage temperaturen.

METAR OKBK 121100Z 32019KT 6000 -BLDU SKC 47/04 Q0995 NOSIG=

  • De temperatuurgroep wordt gevormd door het woord 47/04.
    • 47/04: De temperatuur is 47 °C (oftewel bloedverzengend heet).
    • 47/04: Het dauwpunt bedraagt slechts 4 °C.
  • De plaatsaanwijzer OKBK is van Kuwait International Airport in Koeweit. Tja, het wil nog wel eens "lekker zonnig" zijn in die contreien...

volgende pagina